Portada
METAR-TAF:

METAR-TAF

Aeroports :

Funafuti, Tuvalu

latitud: 08-31S, longitud: 179-13E, altitud: 1 m

Observació

L'informe es va fer fa 38 minuts, a les 11:00 UTC
Vent 10 kt del Est/Nord-Est
Temperatura 29°C
Humitat 79%
Pressió 1010 hPa
Visibilitat 10 km o més
Escasses núvols a una alçada de 1600 ft, Cumulonimbus.
Escasses núvols a una alçada de 1800 ft, Cumulus congestus.
Cel ennuvolat a una alçada de 11000 ft

METAR: NGFU 051100Z 06010KT 9999 FEW016CB FEW018TCU BKN110 29/25 Q1010

Hora: 23:38 (11:38 UTC)

Pronòstic

L'informe es va fer fa 6 hores i 30 minuts, a les 05:08 UTC
Pronòstic vàlid del 05 a les 06 UTC al 06 a les 06 UTC
Vent 6 kt del Est/Nord-Est
Visibilitat 10 km o més
Escasses núvols a una alçada de 1800 ft
Cel ennuvolat a una alçada de 10000 ft
Temporalment
l' 05 a les 12 UTC al 05 a les 24 UTC
Visibilitat: 5000 m
Escasses núvols a una alçada de 1800 ft, Cumulonimbus.
tempesta, pluja

TAF: NGFU 050508Z 0506/0606 07006KT 9999 FEW018 BKN100 TEMPO 0512/0524 5000 TSRA FEW018CB

Observacions i pronòstics meteorològics de més de 4000 aeroports (METAR i TAF).

Les estacions disponibles són els punts grocs i vermells al mapa.

Posi el ratolí al punt desitjat per veure el nom de l'estació.

Feu clic per veure les observacions i els pronòstics meteorològics.

Per canviar el mapa: feu clic els botons verds amb una creu de color negre per apropar; al botó verd amb un guió per allunyar la imatge; o en les fletxes verdes per a mapes adjacents.


METAR-TAF: